createdAt,value
2022-08-22T00:01:41.131Z,74577.09
2022-08-22T00:02:53.347Z,74183.59
2022-08-22T00:03:03.865Z,74280.91
2022-08-22T00:03:06.692Z,74621.53
2022-08-22T00:04:16.241Z,74589.81
2022-08-22T00:06:51.870Z,74570.75
2022-08-22T00:09:29.680Z,74575.00
2022-08-22T00:12:09.348Z,74581.34
2022-08-22T00:14:42.157Z,74572.88
2022-08-22T00:17:45.486Z,74570.75
2022-08-22T00:20:20.962Z,74608.84
2022-08-22T00:22:59.750Z,74649.03
2022-08-22T00:25:31.294Z,74630.00
2022-08-22T00:28:02.881Z,74621.53
2022-08-22T00:30:42.901Z,74600.38
2022-08-22T00:33:18.758Z,74610.97
2022-08-22T00:35:50.738Z,74615.19
2022-08-22T00:38:22.761Z,74598.25
2022-08-22T00:40:58.590Z,74581.34
2022-08-22T00:44:01.312Z,74577.09
2022-08-22T00:46:42.671Z,74568.63
2022-08-22T00:49:18.972Z,74560.19
2022-08-22T00:52:05.804Z,74551.72
2022-08-22T00:54:50.343Z,74541.13
2022-08-22T00:57:30.205Z,74536.91
2022-08-22T01:00:16.787Z,74534.78
2022-08-22T01:03:26.938Z,74534.78
2022-08-22T01:06:08.308Z,74532.69
2022-08-22T01:08:52.100Z,74517.88
2022-08-22T01:11:29.312Z,74522.09
2022-08-22T01:14:09.287Z,74522.09
2022-08-22T01:16:58.661Z,74522.09
2022-08-22T01:19:53.720Z,74524.22
2022-08-22T01:22:50.450Z,74530.56
2022-08-22T01:25:44.164Z,74530.56
2022-08-22T01:28:40.255Z,74526.31
2022-08-22T01:31:49.086Z,74534.78
2022-08-22T01:34:44.622Z,74539.03
2022-08-22T01:37:27.028Z,74530.56
2022-08-22T01:40:27.222Z,74524.22
2022-08-22T01:43:10.271Z,74522.09
2022-08-22T01:46:07.956Z,74519.97
2022-08-22T01:48:41.257Z,74526.31
2022-08-22T01:51:19.400Z,74534.78
2022-08-22T01:53:54.759Z,74534.78
2022-08-22T01:56:24.368Z,74536.91
2022-08-22T01:58:57.749Z,74539.03
2022-08-22T02:01:39.683Z,74555.94
2022-08-22T02:04:14.346Z,74572.88
2022-08-22T02:06:48.615Z,74577.09
2022-08-22T02:09:37.623Z,74579.22
2022-08-22T02:12:22.233Z,74619.41
2022-08-22T02:14:56.076Z,74617.31
2022-08-22T02:17:27.482Z,74604.59
2022-08-22T02:19:59.578Z,74606.72
2022-08-22T02:22:35.274Z,74602.50
2022-08-22T02:25:09.826Z,74608.84
2022-08-22T02:27:50.882Z,74606.72
2022-08-22T02:30:21.387Z,74606.72
2022-08-22T02:32:58.450Z,74606.72
2022-08-22T02:35:31.447Z,74594.03
2022-08-22T02:38:08.515Z,74598.25
2022-08-22T02:40:39.252Z,74598.25
2022-08-22T02:43:14.367Z,74608.84
2022-08-22T02:45:45.735Z,74598.25
2022-08-22T02:48:20.675Z,74594.03
2022-08-22T02:50:53.058Z,74589.81
2022-08-22T02:53:25.428Z,74589.81
2022-08-22T02:55:58.225Z,74589.81
2022-08-22T02:58:31.496Z,74598.25
2022-08-22T03:01:35.317Z,74589.81
2022-08-22T03:04:25.367Z,74594.03
2022-08-22T03:07:08.126Z,74583.44
2022-08-22T03:09:41.251Z,74577.09
2022-08-22T03:12:17.131Z,74581.34
2022-08-22T03:14:50.884Z,74581.34
2022-08-22T03:17:25.214Z,74577.09
2022-08-22T03:19:57.501Z,74575.00
2022-08-22T03:22:33.640Z,74572.88
2022-08-22T03:25:08.717Z,74583.44
2022-08-22T03:27:41.346Z,74585.56
2022-08-22T03:30:17.971Z,74587.69
2022-08-22T03:32:52.716Z,74587.69
2022-08-22T03:35:28.517Z,74591.91
2022-08-22T03:38:09.580Z,74598.25
2022-08-22T03:40:51.165Z,74602.50
2022-08-22T03:43:32.245Z,74615.19
2022-08-22T03:46:18.367Z,74610.97
2022-08-22T03:49:07.169Z,74613.06
2022-08-22T03:51:44.001Z,74615.19
2022-08-22T03:54:33.044Z,74617.31
2022-08-22T03:57:31.165Z,74615.19
2022-08-22T04:00:23.081Z,74617.31
2022-08-22T04:03:13.219Z,74619.41
2022-08-22T04:06:07.863Z,74610.97
2022-08-22T04:09:05.248Z,74613.06
2022-08-22T04:11:54.388Z,74615.19
2022-08-22T04:14:39.988Z,74613.06
2022-08-22T04:17:24.888Z,74610.97
2022-08-22T04:20:24.940Z,74608.84
2022-08-22T04:23:16.065Z,74615.19
2022-08-22T04:25:45.423Z,74617.31
2022-08-22T04:28:18.553Z,74608.84
2022-08-22T04:30:53.206Z,74608.84
2022-08-22T04:33:25.486Z,74602.50
2022-08-22T04:36:01.417Z,74602.50
2022-08-22T04:38:32.610Z,74598.25
2022-08-22T04:41:05.014Z,74594.03
2022-08-22T04:43:47.766Z,74585.56
2022-08-22T04:46:21.089Z,74579.22
2022-08-22T04:48:52.746Z,74581.34
2022-08-22T04:51:21.989Z,74575.00
2022-08-22T04:54:06.134Z,74568.63
2022-08-22T04:56:40.249Z,74564.41
2022-08-22T04:59:11.840Z,74558.06
2022-08-22T05:01:43.893Z,74545.38
2022-08-22T05:04:14.020Z,74547.47
2022-08-22T05:06:45.528Z,74551.72
2022-08-22T05:09:16.780Z,74549.59
2022-08-22T05:11:46.744Z,74536.91
2022-08-22T05:14:18.083Z,74526.31
2022-08-22T05:16:50.070Z,74519.97
2022-08-22T05:19:27.056Z,74522.09
2022-08-22T05:21:58.026Z,74498.81
2022-08-22T05:24:28.871Z,74492.47
2022-08-22T05:26:58.710Z,74496.72
2022-08-22T05:29:31.951Z,74484.00
2022-08-22T05:32:04.360Z,74486.13
2022-08-22T05:34:34.328Z,74479.78
2022-08-22T05:37:14.416Z,74479.78
2022-08-22T05:39:47.303Z,74475.56
2022-08-22T05:42:17.679Z,74462.84
2022-08-22T05:44:45.928Z,74443.81
2022-08-22T05:47:22.335Z,74424.78
2022-08-22T05:49:56.761Z,74420.53
2022-08-22T05:52:34.955Z,74407.84
2022-08-22T05:55:05.836Z,74403.63
2022-08-22T05:57:37.048Z,74405.72
2022-08-22T06:00:11.003Z,74407.84
2022-08-22T06:02:57.775Z,74412.09
2022-08-22T06:05:27.758Z,74399.38
2022-08-22T06:07:59.806Z,74397.28
2022-08-22T06:10:32.009Z,74386.69
2022-08-22T06:13:03.157Z,74390.91
2022-08-22T06:15:36.191Z,74384.56
2022-08-22T06:18:07.742Z,74378.22
2022-08-22T06:20:36.271Z,74354.97
2022-08-22T06:23:04.659Z,74331.69
2022-08-22T06:25:34.232Z,74319.00
2022-08-22T06:28:05.598Z,74304.19
2022-08-22T06:30:35.188Z,74287.25
2022-08-22T06:33:12.374Z,74274.56
2022-08-22T06:36:00.828Z,74272.44
2022-08-22T06:38:33.679Z,74247.06
2022-08-22T06:41:03.580Z,74228.03
2022-08-22T06:43:37.717Z,74213.22
2022-08-22T06:46:07.040Z,74194.19
2022-08-22T06:48:37.119Z,74187.81
2022-08-22T06:51:08.414Z,74175.13
2022-08-22T06:53:45.920Z,74168.78
2022-08-22T06:56:20.562Z,74149.75
2022-08-22T06:58:50.051Z,74141.28
2022-08-22T07:01:22.780Z,74122.25
2022-08-22T07:03:54.649Z,74111.66
2022-08-22T07:06:37.762Z,74101.09
2022-08-22T07:09:07.066Z,74086.28
2022-08-22T07:11:39.689Z,74077.81
2022-08-22T07:14:11.512Z,74077.81
2022-08-22T07:16:43.957Z,74096.84
2022-08-22T07:19:24.531Z,74092.63
2022-08-22T07:21:54.563Z,74065.13
2022-08-22T07:24:26.998Z,74041.84
2022-08-22T07:27:05.971Z,74029.16
2022-08-22T07:29:49.016Z,74005.91
2022-08-22T07:32:20.918Z,73993.19
2022-08-22T07:35:06.159Z,73972.03
2022-08-22T07:37:44.998Z,73967.81
2022-08-22T07:40:20.067Z,73959.34
2022-08-22T07:42:51.019Z,73938.19
2022-08-22T07:45:21.951Z,73940.31
2022-08-22T07:48:03.235Z,73929.75
2022-08-22T07:50:37.341Z,73972.03
2022-08-22T07:53:09.839Z,74014.34
2022-08-22T07:55:48.492Z,74037.63
2022-08-22T07:58:17.835Z,74041.84
2022-08-22T08:00:46.944Z,74041.84
2022-08-22T08:03:14.880Z,74046.09
2022-08-22T08:05:45.621Z,74041.84
2022-08-22T08:08:22.636Z,74041.84
2022-08-22T08:10:52.034Z,74043.97
2022-08-22T08:13:23.165Z,74031.28
2022-08-22T08:15:51.444Z,74031.28
2022-08-22T08:18:23.399Z,74037.63
2022-08-22T08:20:56.127Z,74037.63
2022-08-22T08:23:25.145Z,74033.41
2022-08-22T08:26:04.336Z,74016.47
2022-08-22T08:28:34.179Z,74005.91
2022-08-22T08:31:08.852Z,73988.97
2022-08-22T08:33:39.302Z,73980.50
2022-08-22T08:36:33.105Z,73961.47
2022-08-22T08:39:12.634Z,73929.75
2022-08-22T08:42:11.014Z,73933.97
2022-08-22T08:45:04.943Z,73940.31
2022-08-22T08:47:41.318Z,73917.03
2022-08-22T08:50:25.432Z,73910.69
2022-08-22T08:53:18.013Z,73889.53
2022-08-22T08:55:51.192Z,73857.81
2022-08-22T08:58:34.872Z,73866.28
2022-08-22T09:01:14.091Z,73891.66
2022-08-22T09:04:15.333Z,73895.91
2022-08-22T09:07:06.998Z,73870.50
2022-08-22T09:09:46.332Z,73834.56
2022-08-22T09:12:59.774Z,73832.44
2022-08-22T09:15:58.417Z,73819.75
2022-08-22T09:19:02.871Z,73807.03
2022-08-22T09:22:02.014Z,73792.25
2022-08-22T09:24:52.424Z,73785.91
2022-08-22T09:27:31.372Z,73807.03
2022-08-22T09:30:05.974Z,73798.59
2022-08-22T09:32:44.547Z,73817.63
2022-08-22T09:35:22.369Z,73840.91
2022-08-22T09:38:00.953Z,73853.59
2022-08-22T09:40:32.883Z,73857.81
2022-08-22T09:43:06.186Z,73876.84
2022-08-22T09:45:54.561Z,73870.50
2022-08-22T09:48:35.644Z,73862.03
2022-08-22T09:51:31.206Z,73855.69
2022-08-22T09:54:12.180Z,73838.78
2022-08-22T09:56:49.536Z,73826.09
2022-08-22T09:59:23.758Z,73819.75
2022-08-22T10:01:56.395Z,73796.47
2022-08-22T10:04:42.029Z,73777.44
2022-08-22T10:07:26.266Z,73764.75
2022-08-22T10:10:00.104Z,73775.31
2022-08-22T10:12:35.749Z,73764.75
2022-08-22T10:15:17.454Z,73733.00
2022-08-22T10:17:59.207Z,73720.31
2022-08-22T10:20:31.549Z,73728.78
2022-08-22T10:23:10.940Z,73726.66
2022-08-22T10:25:42.265Z,73713.97
2022-08-22T10:28:20.301Z,73701.28
2022-08-22T10:30:56.991Z,73667.44
2022-08-22T10:33:29.073Z,73658.97
2022-08-22T10:36:05.062Z,73637.81
2022-08-22T10:38:43.896Z,73631.47
2022-08-22T10:41:15.745Z,73642.06
2022-08-22T10:44:00.828Z,73633.59
2022-08-22T10:46:37.641Z,73635.72
2022-08-22T10:49:09.792Z,73665.31
2022-08-22T10:51:45.142Z,73614.56
2022-08-22T10:54:36.773Z,73616.66
2022-08-22T10:57:22.633Z,73644.16
2022-08-22T10:59:58.814Z,73650.50
2022-08-22T11:02:42.437Z,73639.94
2022-08-22T11:05:41.593Z,73654.75
2022-08-22T11:08:28.691Z,73629.38
2022-08-22T11:11:06.500Z,73616.66
2022-08-22T11:13:43.391Z,73608.22
2022-08-22T11:16:23.208Z,73639.94
2022-08-22T11:19:15.971Z,73642.06
2022-08-22T11:22:14.439Z,73629.38
2022-08-22T11:25:30.991Z,73682.25
2022-08-22T11:28:34.255Z,73690.72
2022-08-22T11:31:07.579Z,73688.59
2022-08-22T11:33:47.292Z,73694.94
2022-08-22T11:36:33.890Z,73694.94
2022-08-22T11:39:13.706Z,73686.47
2022-08-22T11:41:52.907Z,73675.91
2022-08-22T11:44:25.697Z,73688.59
2022-08-22T11:46:58.129Z,73673.78
2022-08-22T11:49:47.045Z,73680.13
2022-08-22T11:52:25.456Z,73675.91
2022-08-22T11:55:13.784Z,73697.06
2022-08-22T11:57:44.962Z,73694.94
2022-08-22T12:00:28.894Z,73667.44
2022-08-22T12:03:19.719Z,73618.78
2022-08-22T12:05:56.545Z,73603.97
2022-08-22T12:09:04.771Z,73614.56
2022-08-22T12:11:39.956Z,73642.06
2022-08-22T12:14:18.718Z,73669.56
2022-08-22T12:16:57.078Z,73658.97
2022-08-22T12:19:32.630Z,73658.97
2022-08-22T12:22:49.974Z,73629.38
2022-08-22T12:25:32.460Z,73601.88
2022-08-22T12:28:15.916Z,73595.53
2022-08-22T12:30:54.757Z,73601.88
2022-08-22T12:34:34.391Z,73608.22
2022-08-22T12:37:10.152Z,73599.75
2022-08-22T12:40:26.354Z,73606.09
2022-08-22T12:43:07.168Z,73629.38
2022-08-22T12:45:46.939Z,73642.06
2022-08-22T12:48:31.329Z,73654.75
2022-08-22T12:51:17.635Z,73663.22
2022-08-22T12:54:01.700Z,73671.66
2022-08-22T12:56:36.977Z,73690.72
2022-08-22T12:59:23.871Z,73690.72
2022-08-22T13:01:53.727Z,73692.81
2022-08-22T13:04:32.594Z,73703.41
2022-08-22T13:07:10.202Z,73701.28
2022-08-22T13:09:40.065Z,73701.28
2022-08-22T13:12:21.181Z,73694.94
2022-08-22T13:14:56.924Z,73690.72
2022-08-22T13:17:25.742Z,73680.13
2022-08-22T13:20:05.486Z,73671.66
2022-08-22T13:22:37.125Z,73682.25
2022-08-22T13:25:08.951Z,73675.91
2022-08-22T13:28:03.417Z,73665.31
2022-08-22T13:30:33.606Z,73646.28
2022-08-22T13:33:09.774Z,73633.59
2022-08-22T13:35:44.530Z,73642.06
2022-08-22T13:38:25.981Z,73637.81
2022-08-22T13:40:56.705Z,73646.28
2022-08-22T13:43:27.317Z,73646.28
2022-08-22T13:46:02.076Z,73646.28
2022-08-22T13:48:47.595Z,73652.63
2022-08-22T13:51:22.442Z,73650.50
2022-08-22T13:54:00.613Z,73652.63
2022-08-22T13:56:34.039Z,73654.75
2022-08-22T13:59:05.603Z,73658.97
2022-08-22T14:01:39.520Z,73652.63
2022-08-22T14:04:28.357Z,73667.44
2022-08-22T14:07:19.470Z,73661.09
2022-08-22T14:09:56.052Z,73646.28
2022-08-22T14:12:33.347Z,73650.50
2022-08-22T14:15:24.526Z,73650.50
2022-08-22T14:17:58.015Z,73667.44
2022-08-22T14:20:33.640Z,73663.22
2022-08-22T14:23:04.372Z,73678.00
2022-08-22T14:25:36.742Z,73684.38
2022-08-22T14:28:09.198Z,73680.13
2022-08-22T14:30:40.747Z,73675.91
2022-08-22T14:33:13.103Z,73680.13
2022-08-22T14:35:44.072Z,73697.06
2022-08-22T14:38:29.974Z,73718.22
2022-08-22T14:41:03.300Z,73713.97
2022-08-22T14:43:47.355Z,73722.44
2022-08-22T14:46:21.090Z,73739.34
2022-08-22T14:49:28.877Z,73754.16
2022-08-22T14:52:04.506Z,73756.28
2022-08-22T14:54:34.814Z,73752.06
2022-08-22T14:57:10.346Z,73756.28
2022-08-22T14:59:50.324Z,73766.84
2022-08-22T15:02:25.804Z,73766.84
2022-08-22T15:04:54.995Z,73760.50
2022-08-22T15:07:26.787Z,73779.56
2022-08-22T15:09:58.323Z,73785.91
2022-08-22T15:12:29.430Z,73783.78
2022-08-22T15:14:59.356Z,73785.91
2022-08-22T15:17:44.177Z,73794.34
2022-08-22T15:20:28.054Z,73790.13
2022-08-22T15:23:00.593Z,73796.47
2022-08-22T15:25:31.607Z,73792.25
2022-08-22T15:28:05.189Z,73800.69
2022-08-22T15:30:44.257Z,73800.69
2022-08-22T15:33:16.408Z,73809.16
2022-08-22T15:35:45.343Z,73800.69
2022-08-22T15:38:30.816Z,73804.94
2022-08-22T15:41:31.083Z,73800.69
2022-08-22T15:44:06.043Z,73802.81
2022-08-22T15:46:37.804Z,73807.03
2022-08-22T15:49:07.544Z,73807.03
2022-08-22T15:51:43.000Z,73811.28
2022-08-22T15:54:24.498Z,73807.03
2022-08-22T15:57:40.211Z,73809.16
2022-08-22T16:00:28.005Z,73798.59
2022-08-22T16:02:59.510Z,73802.81
2022-08-22T16:05:33.544Z,73807.03
2022-08-22T16:08:04.763Z,73811.28
2022-08-22T16:10:36.347Z,73811.28
2022-08-22T16:13:29.496Z,73811.28
2022-08-22T16:16:02.506Z,73807.03
2022-08-22T16:19:08.549Z,73813.41
2022-08-22T16:22:15.814Z,73821.84
2022-08-22T16:25:05.392Z,73834.56
2022-08-22T16:27:35.105Z,73836.66
2022-08-22T16:30:14.703Z,73845.13
2022-08-22T16:32:57.442Z,73853.59
2022-08-22T16:36:02.487Z,73855.69
2022-08-22T16:38:38.052Z,73866.28
2022-08-22T16:41:06.480Z,73878.97
2022-08-22T16:43:35.657Z,73893.78
2022-08-22T16:46:28.131Z,73898.00
2022-08-22T16:49:02.658Z,73910.69
2022-08-22T16:51:30.420Z,73908.59
2022-08-22T16:54:33.727Z,73923.41
2022-08-22T16:57:09.127Z,73931.84
2022-08-22T16:59:57.268Z,73944.53
2022-08-22T17:02:52.417Z,73938.19
2022-08-22T17:05:29.368Z,73940.31
2022-08-22T17:08:08.051Z,73955.13
2022-08-22T17:10:43.366Z,73959.34
2022-08-22T17:13:20.505Z,73967.81
2022-08-22T17:16:06.623Z,73967.81
2022-08-22T17:18:46.266Z,73976.28
2022-08-22T17:21:19.034Z,73984.75
2022-08-22T17:23:55.652Z,73988.97
2022-08-22T17:26:37.559Z,73984.75
2022-08-22T17:29:16.764Z,73993.19
2022-08-22T17:31:50.798Z,73995.31
2022-08-22T17:34:38.053Z,73997.44
2022-08-22T17:37:11.604Z,74001.66
2022-08-22T17:39:56.570Z,74022.81
2022-08-22T17:42:38.737Z,74029.16
2022-08-22T17:48:17.372Z,74056.66
2022-08-22T17:50:48.147Z,74060.91
2022-08-22T17:53:28.493Z,74060.91
2022-08-22T17:56:09.371Z,74069.34
2022-08-22T17:58:44.238Z,74088.41
2022-08-22T18:01:16.714Z,74096.84
2022-08-22T18:04:11.636Z,74101.09
2022-08-22T18:06:47.769Z,74094.75
2022-08-22T18:09:31.241Z,74105.31
2022-08-22T18:12:04.326Z,74124.38
2022-08-22T18:14:35.803Z,74128.59
2022-08-22T18:17:19.908Z,74128.59
2022-08-22T18:19:56.461Z,74132.81
2022-08-22T18:22:28.280Z,74137.06
2022-08-22T18:24:59.306Z,74149.75
2022-08-22T18:27:35.912Z,74153.97
2022-08-22T18:30:17.953Z,74156.09
2022-08-22T18:32:53.386Z,74166.66
2022-08-22T18:35:30.048Z,74164.56
2022-08-22T18:38:19.160Z,74170.91
2022-08-22T18:40:52.517Z,74168.78
2022-08-22T18:43:24.423Z,74177.25
2022-08-22T18:46:03.785Z,74179.38
2022-08-22T18:48:59.232Z,74196.28
2022-08-22T18:51:34.872Z,74213.22
2022-08-22T18:54:41.647Z,74213.22
2022-08-22T18:57:30.566Z,74208.97
2022-08-22T19:00:09.602Z,74202.63
2022-08-22T19:03:08.889Z,74200.53
2022-08-22T19:05:54.144Z,74211.09
2022-08-22T19:08:44.962Z,74215.31
2022-08-22T19:11:26.152Z,74217.44
2022-08-22T19:14:08.856Z,74225.91
2022-08-22T19:16:57.631Z,74238.59
2022-08-22T19:19:53.987Z,74247.06
2022-08-22T19:22:26.369Z,74247.06
2022-08-22T19:25:15.698Z,74249.19
2022-08-22T19:27:47.833Z,74253.41
2022-08-22T19:30:41.441Z,74247.06
2022-08-22T19:33:12.655Z,74251.28
2022-08-22T19:35:48.662Z,74264.00
2022-08-22T19:38:59.063Z,74268.22
2022-08-22T19:41:46.166Z,74272.44
2022-08-22T19:44:36.196Z,74285.16
2022-08-22T19:47:09.212Z,74280.91
2022-08-22T19:49:40.272Z,74285.16
2022-08-22T19:52:22.315Z,74280.91
2022-08-22T19:54:57.812Z,74283.03
2022-08-22T19:57:37.496Z,74285.16
2022-08-22T20:00:18.514Z,74285.16
2022-08-22T20:02:57.373Z,74289.38
2022-08-22T20:05:34.121Z,74289.38
2022-08-22T20:08:25.493Z,74297.84
2022-08-22T20:11:03.019Z,74297.84
2022-08-22T20:13:34.517Z,74306.31
2022-08-22T20:16:05.418Z,74297.84
2022-08-22T20:19:06.394Z,74289.38
2022-08-22T20:21:51.576Z,74302.06
2022-08-22T20:24:23.407Z,74310.53
2022-08-22T20:27:12.938Z,74304.19
2022-08-22T20:29:49.093Z,74302.06
2022-08-22T20:32:19.624Z,74297.84
2022-08-22T20:34:48.586Z,74321.09
2022-08-22T20:40:55.463Z,74323.22
2022-08-22T20:43:18.513Z,74321.09
2022-08-22T20:45:54.894Z,74331.69
2022-08-22T20:48:22.622Z,74335.91
2022-08-22T20:50:50.463Z,74340.16
2022-08-22T20:53:21.599Z,74333.81
2022-08-22T20:55:53.935Z,74329.56
2022-08-22T20:58:25.077Z,74335.91
2022-08-22T21:01:00.112Z,74333.81
2022-08-22T21:03:37.268Z,74331.69
2022-08-22T21:06:13.261Z,74333.81
2022-08-22T21:08:41.890Z,74329.56
2022-08-22T21:11:30.282Z,74325.34
2022-08-22T21:13:59.300Z,74335.91
2022-08-22T21:16:33.106Z,74333.81
2022-08-22T21:19:01.987Z,74333.81
2022-08-22T21:21:31.912Z,74335.91
2022-08-22T21:24:02.063Z,74329.56
2022-08-22T21:26:31.661Z,74323.22
2022-08-22T21:29:02.731Z,74333.81
2022-08-22T21:31:34.393Z,74335.91
2022-08-22T21:34:02.580Z,74344.38
2022-08-22T21:36:32.303Z,74354.97
2022-08-22T21:39:04.269Z,74357.06
2022-08-22T21:41:34.710Z,74354.97
2022-08-22T21:44:19.305Z,74348.59
2022-08-22T21:46:48.423Z,74365.53
2022-08-22T21:49:22.464Z,74374.00
2022-08-22T21:51:51.468Z,74367.66
2022-08-22T21:54:41.373Z,74369.78
2022-08-22T21:57:17.786Z,74369.78
2022-08-22T21:59:51.763Z,74378.22
2022-08-22T22:02:34.214Z,74374.00
2022-08-22T22:05:08.567Z,74374.00
2022-08-22T22:07:37.958Z,74361.31
2022-08-22T22:10:08.262Z,74357.06
2022-08-22T22:12:36.298Z,74350.72
2022-08-22T22:15:04.368Z,74348.59
2022-08-22T22:17:33.509Z,74348.59
2022-08-22T22:20:01.308Z,74352.84
2022-08-22T22:22:29.058Z,74357.06
2022-08-22T22:24:56.805Z,74352.84
2022-08-22T22:27:24.526Z,74361.31
2022-08-22T22:29:52.379Z,74365.53
2022-08-22T22:32:20.209Z,74374.00
2022-08-22T22:34:49.383Z,74382.47
2022-08-22T22:37:17.195Z,74390.91
2022-08-22T22:39:45.226Z,74388.81
2022-08-22T22:42:13.402Z,74397.28
2022-08-22T22:44:41.091Z,74399.38
2022-08-22T22:47:15.192Z,74422.66
2022-08-22T22:49:44.729Z,74424.78
2022-08-22T22:52:13.859Z,74418.44
2022-08-22T22:54:41.586Z,74429.00
2022-08-22T22:57:13.388Z,74450.16
2022-08-22T22:59:43.996Z,74513.63
2022-08-22T23:02:15.280Z,74492.47
2022-08-22T23:04:45.057Z,74471.31
2022-08-22T23:07:16.080Z,74467.09
2022-08-22T23:09:44.519Z,74460.75
2022-08-22T23:12:13.910Z,74473.44
2022-08-22T23:14:42.091Z,74479.78
2022-08-22T23:17:09.894Z,74473.44
2022-08-22T23:19:38.818Z,74503.06
2022-08-22T23:22:07.865Z,74543.25
2022-08-22T23:24:38.226Z,74522.09
2022-08-22T23:27:07.140Z,74496.72
2022-08-22T23:29:37.199Z,74473.44
2022-08-22T23:32:05.881Z,74473.44
2022-08-22T23:34:35.847Z,74454.41
2022-08-22T23:37:06.418Z,74452.28
2022-08-22T23:39:38.096Z,74454.41
2022-08-22T23:42:07.777Z,74469.19
2022-08-22T23:44:37.339Z,74471.31
2022-08-22T23:47:06.247Z,74462.84
2022-08-22T23:49:34.770Z,74462.84
2022-08-22T23:52:03.318Z,74458.63
2022-08-22T23:54:31.146Z,74471.31
2022-08-22T23:57:02.510Z,74471.31
2022-08-22T23:59:33.964Z,74473.44
